createdAt,value
2023-05-25T00:01:24.576Z,7.09
2023-05-25T00:06:27.881Z,6.99
2023-05-25T00:11:29.562Z,6.97
2023-05-25T00:16:31.868Z,6.90
2023-05-25T00:21:38.339Z,6.93
2023-05-25T00:26:40.105Z,6.75
2023-05-25T00:31:41.839Z,6.97
2023-05-25T00:36:43.566Z,7.19
2023-05-25T00:41:46.604Z,7.05
2023-05-25T00:46:50.804Z,7.02
2023-05-25T00:51:53.083Z,6.74
2023-05-25T00:57:04.384Z,6.63
2023-05-25T01:02:09.477Z,6.54
2023-05-25T01:07:17.779Z,6.65
2023-05-25T01:12:22.538Z,6.68
2023-05-25T01:17:24.322Z,6.57
2023-05-25T01:22:32.670Z,6.50
2023-05-25T01:27:46.908Z,6.40
2023-05-25T01:32:49.613Z,6.16
2023-05-25T01:37:52.577Z,6.06
2023-05-25T01:42:54.366Z,6.22
2023-05-25T01:48:24.031Z,6.28
2023-05-25T01:53:31.481Z,6.19
2023-05-25T01:58:38.771Z,6.03
2023-05-25T02:03:42.036Z,6.00
2023-05-25T02:08:45.782Z,5.93
2023-05-25T02:13:47.539Z,5.82
2023-05-25T02:18:50.919Z,5.82
2023-05-25T02:23:54.059Z,6.00
2023-05-25T02:28:55.712Z,5.97
2023-05-25T02:33:57.538Z,5.98
2023-05-25T02:39:01.433Z,5.77
2023-05-25T02:44:03.812Z,5.92
2023-05-25T02:49:06.505Z,5.85
2023-05-25T02:54:09.741Z,5.76
2023-05-25T02:59:11.464Z,5.69
2023-05-25T03:04:14.276Z,5.61
2023-05-25T03:09:16.215Z,5.74
2023-05-25T03:14:18.056Z,5.69
2023-05-25T03:19:27.322Z,5.79
2023-05-25T03:24:29.207Z,5.75
2023-05-25T03:29:34.973Z,5.84
2023-05-25T03:34:37.497Z,5.83
2023-05-25T03:39:40.858Z,5.69
2023-05-25T03:44:42.617Z,5.88
2023-05-25T03:49:45.138Z,5.93
2023-05-25T03:54:47.912Z,6.19
2023-05-25T03:59:49.554Z,6.42
2023-05-25T04:04:52.093Z,7.05
2023-05-25T04:09:53.796Z,7.94
2023-05-25T04:14:56.470Z,8.35
2023-05-25T04:19:59.879Z,9.08
2023-05-25T04:25:02.363Z,9.80
2023-05-25T04:30:05.058Z,8.58
2023-05-25T04:35:28.465Z,7.63
2023-05-25T04:40:33.259Z,8.65
2023-05-25T04:45:35.519Z,8.74
2023-05-25T04:50:40.196Z,8.64
2023-05-25T04:55:43.102Z,10.06
2023-05-25T05:00:45.580Z,9.92
2023-05-25T05:05:47.544Z,9.07
2023-05-25T05:10:54.909Z,9.21
2023-05-25T05:15:58.560Z,10.48
2023-05-25T05:21:00.510Z,10.00
2023-05-25T05:26:04.942Z,10.79
2023-05-25T05:31:07.559Z,11.28
2023-05-25T05:36:10.287Z,13.01
2023-05-25T05:41:14.513Z,13.44
2023-05-25T05:46:21.150Z,12.32
2023-05-25T05:51:22.859Z,11.97
2023-05-25T05:56:24.643Z,12.26
2023-05-25T06:01:26.335Z,12.05
2023-05-25T06:06:28.661Z,12.47
2023-05-25T06:11:31.450Z,13.23
2023-05-25T06:16:33.420Z,13.35
2023-05-25T06:21:35.212Z,13.59
2023-05-25T06:26:36.885Z,13.29
2023-05-25T06:31:38.757Z,14.24
2023-05-25T06:36:41.784Z,15.21
2023-05-25T06:41:44.916Z,16.95
2023-05-25T06:46:52.685Z,17.76
2023-05-25T06:51:54.428Z,19.07
2023-05-25T06:56:56.183Z,17.22
2023-05-25T07:01:59.163Z,18.16
2023-05-25T07:07:01.107Z,23.52
2023-05-25T07:17:04.632Z,23.45
2023-05-25T07:22:06.341Z,21.68
2023-05-25T07:27:08.332Z,24.28
2023-05-25T07:32:09.977Z,21.43
2023-05-25T07:37:11.650Z,24.02
2023-05-25T07:42:13.311Z,24.46
2023-05-25T07:47:15.044Z,20.90
2023-05-25T07:52:16.838Z,22.28
2023-05-25T07:57:18.557Z,24.66
2023-05-25T08:02:20.292Z,28.06
2023-05-25T08:07:22.029Z,26.07
2023-05-25T08:12:38.501Z,27.86
2023-05-25T08:17:45.783Z,27.54
2023-05-25T08:22:47.502Z,28.51
2023-05-25T08:27:49.261Z,27.96
2023-05-25T08:32:51.169Z,23.86
2023-05-25T08:37:52.859Z,25.95
2023-05-25T08:42:54.819Z,27.47
2023-05-25T08:48:01.097Z,25.74
2023-05-25T08:53:08.307Z,28.29
2023-05-25T08:58:19.836Z,25.91
2023-05-25T09:03:22.233Z,26.51
2023-05-25T09:08:25.012Z,28.66
2023-05-25T09:13:26.868Z,28.46
2023-05-25T09:18:28.669Z,26.11
2023-05-25T09:23:30.712Z,25.82
2023-05-25T09:28:32.394Z,26.87
2023-05-25T09:33:36.822Z,26.12
2023-05-25T09:38:40.515Z,26.94
2023-05-25T09:43:48.904Z,26.25
2023-05-25T09:49:00.490Z,29.38
2023-05-25T09:54:04.130Z,29.73
2023-05-25T09:59:06.641Z,28.05
2023-05-25T10:04:08.359Z,25.12
2023-05-25T10:09:14.024Z,25.39
2023-05-25T10:14:22.646Z,28.12
2023-05-25T10:19:57.278Z,28.00
2023-05-25T10:25:29.126Z,25.18
2023-05-25T10:30:32.729Z,25.39
2023-05-25T10:35:46.629Z,26.30
2023-05-25T10:40:51.530Z,25.69
2023-05-25T10:45:55.508Z,26.27
2023-05-25T10:50:57.291Z,25.63
2023-05-25T10:56:04.866Z,27.70
2023-05-25T11:01:12.166Z,28.39
2023-05-25T11:06:15.807Z,27.20
2023-05-25T11:11:17.776Z,25.37
2023-05-25T11:16:20.196Z,26.92
2023-05-25T11:21:27.730Z,25.76
2023-05-25T11:26:31.030Z,27.00
2023-05-25T11:31:39.634Z,25.79
2023-05-25T11:36:44.131Z,27.50
2023-05-25T11:41:52.075Z,26.86
2023-05-25T11:46:57.599Z,24.66
2023-05-25T11:52:00.189Z,26.26
2023-05-25T11:57:02.704Z,26.46
2023-05-25T12:02:04.807Z,27.80
2023-05-25T12:07:07.937Z,26.43
2023-05-25T12:12:09.660Z,25.58
2023-05-25T12:17:11.613Z,25.22
2023-05-25T12:22:14.273Z,24.49
2023-05-25T12:27:20.586Z,25.60
2023-05-25T12:32:22.298Z,26.13
2023-05-25T12:37:24.216Z,25.97
2023-05-25T12:42:31.319Z,24.05
2023-05-25T12:47:33.006Z,22.32
2023-05-25T12:52:46.553Z,24.50
2023-05-25T12:57:52.701Z,24.62
2023-05-25T13:02:54.946Z,25.89
2023-05-25T13:07:58.249Z,24.25
2023-05-25T13:13:00.820Z,24.46
2023-05-25T13:18:02.810Z,23.38
2023-05-25T13:23:06.051Z,22.99
2023-05-25T13:28:07.696Z,22.09
2023-05-25T13:33:09.695Z,21.79
2023-05-25T13:38:11.558Z,22.17
2023-05-25T13:43:13.209Z,22.40
2023-05-25T13:48:14.938Z,22.25
2023-05-25T13:53:16.936Z,22.08
2023-05-25T13:58:18.584Z,22.19
2023-05-25T14:03:20.429Z,22.02
2023-05-25T14:08:22.538Z,22.04
2023-05-25T14:13:24.197Z,21.89
2023-05-25T14:18:25.877Z,22.15
2023-05-25T14:23:27.539Z,21.60
2023-05-25T14:28:29.180Z,21.77
2023-05-25T14:33:30.869Z,21.95
2023-05-25T14:38:32.815Z,21.70
2023-05-25T14:43:35.009Z,21.49
2023-05-25T14:48:36.718Z,21.39
2023-05-25T14:53:38.595Z,21.31
2023-05-25T14:58:40.444Z,21.62
2023-05-25T15:03:42.308Z,21.81
2023-05-25T15:08:44.063Z,21.94
2023-05-25T15:13:46.108Z,21.72
2023-05-25T15:18:47.756Z,21.48
2023-05-25T15:23:49.576Z,21.11
2023-05-25T15:28:51.217Z,21.17
2023-05-25T15:33:58.225Z,21.47
2023-05-25T15:39:00.783Z,21.26
2023-05-25T15:44:02.475Z,21.12
2023-05-25T15:49:10.771Z,21.49
2023-05-25T15:54:14.743Z,21.19
2023-05-25T15:59:16.680Z,21.11
2023-05-25T16:04:19.334Z,20.75
2023-05-25T16:09:21.066Z,21.02
2023-05-25T16:14:22.717Z,21.08
2023-05-25T16:19:24.698Z,20.76
2023-05-25T16:24:27.003Z,20.67
2023-05-25T16:29:29.242Z,21.07
2023-05-25T16:34:31.178Z,20.81
2023-05-25T16:39:33.451Z,20.70
2023-05-25T16:44:35.118Z,20.69
2023-05-25T16:49:36.760Z,20.48
2023-05-25T16:54:38.741Z,20.28
2023-05-25T16:59:41.021Z,20.52
2023-05-25T17:04:42.732Z,20.58
2023-05-25T17:09:44.374Z,20.42
2023-05-25T17:14:48.329Z,20.08
2023-05-25T17:19:49.998Z,20.09
2023-05-25T17:24:51.661Z,20.03
2023-05-25T17:29:53.308Z,19.80
2023-05-25T17:34:54.962Z,19.86
2023-05-25T17:39:56.666Z,19.72
2023-05-25T17:44:58.359Z,19.53
2023-05-25T17:49:59.990Z,19.45
2023-05-25T17:55:01.716Z,19.43
2023-05-25T18:00:04.209Z,19.32
2023-05-25T18:05:13.997Z,19.06
2023-05-25T18:10:15.819Z,18.87
2023-05-25T18:15:17.801Z,18.77
2023-05-25T18:20:19.566Z,18.69
2023-05-25T18:25:21.371Z,18.41
2023-05-25T18:30:23.021Z,18.43
2023-05-25T18:35:24.728Z,18.18
2023-05-25T18:40:26.365Z,18.03
2023-05-25T18:45:28.118Z,17.69
2023-05-25T18:50:29.753Z,17.29
2023-05-25T18:55:31.394Z,16.96
2023-05-25T19:00:33.122Z,16.76
2023-05-25T19:05:35.004Z,16.53
2023-05-25T19:10:36.684Z,16.36
2023-05-25T19:15:38.308Z,16.33
2023-05-25T19:20:39.974Z,16.10
2023-05-25T19:25:41.613Z,16.10
2023-05-25T19:30:43.296Z,15.78
2023-05-25T19:35:45.345Z,15.87
2023-05-25T19:40:47.230Z,15.65
2023-05-25T19:45:48.914Z,15.55
2023-05-25T19:50:50.694Z,15.65
2023-05-25T19:55:52.410Z,15.35
2023-05-25T20:00:54.173Z,15.31
2023-05-25T20:05:56.414Z,15.13
2023-05-25T20:10:58.112Z,15.13
2023-05-25T20:15:59.852Z,15.01
2023-05-25T20:21:01.608Z,14.98
2023-05-25T20:26:03.242Z,14.75
2023-05-25T20:31:06.486Z,14.74
2023-05-25T20:36:08.153Z,14.56
2023-05-25T20:41:09.834Z,14.51
2023-05-25T20:46:11.604Z,14.27
2023-05-25T20:51:14.343Z,13.86
2023-05-25T20:56:16.205Z,13.80
2023-05-25T21:01:17.886Z,13.77
2023-05-25T21:06:19.636Z,13.79
2023-05-25T21:11:22.093Z,13.36
2023-05-25T21:16:23.772Z,13.24
2023-05-25T21:21:25.727Z,13.03
2023-05-25T21:26:31.049Z,12.73
2023-05-25T21:31:32.808Z,12.71
2023-05-25T21:36:34.550Z,12.88
2023-05-25T21:41:36.230Z,12.67
2023-05-25T21:46:38.835Z,12.45
2023-05-25T21:51:40.545Z,12.40
2023-05-25T21:56:42.253Z,12.32
2023-05-25T22:01:43.958Z,12.00
2023-05-25T22:06:45.701Z,12.10
2023-05-25T22:11:47.344Z,12.08
2023-05-25T22:16:49.035Z,11.77
2023-05-25T22:21:50.746Z,11.83
2023-05-25T22:26:52.592Z,11.77
2023-05-25T22:31:54.255Z,11.60
2023-05-25T22:36:56.089Z,11.67
2023-05-25T22:41:57.736Z,11.50
2023-05-25T22:46:59.382Z,11.35
2023-05-25T22:52:01.142Z,11.24
2023-05-25T22:57:02.937Z,11.22
2023-05-25T23:02:04.946Z,11.16
2023-05-25T23:07:06.641Z,11.38
2023-05-25T23:12:08.361Z,11.24
2023-05-25T23:17:10.485Z,10.93
2023-05-25T23:22:12.132Z,11.00
2023-05-25T23:27:13.821Z,10.83
2023-05-25T23:32:15.537Z,10.65
2023-05-25T23:37:17.289Z,10.61
2023-05-25T23:42:18.929Z,10.58
2023-05-25T23:47:20.564Z,10.69
2023-05-25T23:52:22.210Z,10.41
2023-05-25T23:57:23.864Z,10.24
